Time;durP1;ratioP1;P1;durP2;ratioP2;P2;SDS_P1;SDS_P2;PMS_P1;PMS_P2;Temp;Humidity;BMP_temperature;BMP_pressure;BME280_temperature;BME280_humidity;BME280_pressure;Samples;Min_cycle;Max_cycle;Signal;HPM_P1;HPM_P2
2024/01/09 00:01:53;;;;;;;11.50;5.57;;;-6.80;99.90;;;;;;5034000;28;20218;-62
2024/01/09 00:04:20;;;;;;;10.80;5.60;;;-6.80;99.90;;;;;;5034376;28;20206;-62
2024/01/09 00:06:50;;;;;;;7.10;5.38;;;-6.80;99.90;;;;;;5034204;28;20198;-62
2024/01/09 00:09:16;;;;;;;7.40;4.82;;;-6.80;99.90;;;;;;5033424;28;20308;-61
2024/01/09 00:11:43;;;;;;;8.20;5.30;;;-6.80;99.90;;;;;;5033319;28;20230;-61
2024/01/09 00:14:11;;;;;;;8.73;5.45;;;-6.80;99.90;;;;;;5033369;28;20552;-62
2024/01/09 00:16:38;;;;;;;7.10;4.35;;;-6.80;99.90;;;;;;5033699;28;20237;-61
2024/01/09 00:19:05;;;;;;;7.70;5.85;;;-6.90;99.90;;;;;;5032950;28;20569;-62
2024/01/09 00:21:31;;;;;;;7.85;5.07;;;-6.90;99.90;;;;;;5032961;28;20600;-61
2024/01/09 00:24:00;;;;;;;8.25;4.75;;;-6.90;99.90;;;;;;5033158;28;20198;-61
2024/01/09 00:26:26;;;;;;;7.90;5.57;;;-6.90;99.90;;;;;;5033996;28;20209;-62
2024/01/09 00:28:53;;;;;;;6.15;5.30;;;-7.00;99.90;;;;;;5035641;28;20200;-63
2024/01/09 00:31:20;;;;;;;10.07;5.45;;;-7.00;99.90;;;;;;5036816;28;20246;-62
2024/01/09 00:33:47;;;;;;;9.93;5.57;;;-7.00;99.90;;;;;;5037001;28;20202;-61
2024/01/09 00:36:14;;;;;;;9.32;5.82;;;-7.00;99.90;;;;;;5036921;28;20205;-62
2024/01/09 00:38:41;;;;;;;11.13;5.35;;;-7.00;99.90;;;;;;5037100;28;20226;-62
2024/01/09 00:41:09;;;;;;;9.57;6.90;;;-7.00;99.90;;;;;;5037403;28;20226;-62
2024/01/09 00:43:35;;;;;;;10.52;5.85;;;-7.00;99.90;;;;;;5036564;28;20206;-62
2024/01/09 00:46:02;;;;;;;9.48;5.78;;;-7.10;99.90;;;;;;5036844;28;20198;-62
2024/01/09 00:48:29;;;;;;;9.90;5.40;;;-7.10;99.90;;;;;;5036917;28;20649;-61
2024/01/09 00:50:56;;;;;;;10.02;4.93;;;-7.10;99.90;;;;;;5036433;28;20226;-62
2024/01/09 00:53:22;;;;;;;8.73;5.95;;;-7.10;99.90;;;;;;5037304;28;20558;-62
2024/01/09 00:55:49;;;;;;;6.43;4.72;;;-7.10;99.90;;;;;;5036564;28;20558;-62
2024/01/09 00:58:17;;;;;;;6.50;5.03;;;-7.10;99.90;;;;;;5037899;28;20224;-62
2024/01/09 01:00:44;;;;;;;8.48;5.50;;;-7.20;99.90;;;;;;5038798;28;20228;-62
2024/01/09 01:03:11;;;;;;;14.40;6.75;;;-7.10;99.90;;;;;;5037668;28;20297;-62
2024/01/09 01:05:38;;;;;;;8.05;6.35;;;-7.20;99.90;;;;;;5036972;28;20209;-62
2024/01/09 01:08:05;;;;;;;9.88;6.78;;;-7.20;99.90;;;;;;5036555;28;20202;-62
2024/01/09 01:10:32;;;;;;;7.10;5.80;;;-7.20;99.90;;;;;;5036934;28;20222;-62
2024/01/09 01:12:59;;;;;;;6.53;4.72;;;-7.20;99.90;;;;;;5036831;28;20264;-62
2024/01/09 01:15:27;;;;;;;11.85;5.50;;;-7.20;99.90;;;;;;5037308;28;20245;-61
2024/01/09 01:17:54;;;;;;;11.88;6.40;;;-7.20;99.90;;;;;;5035822;28;20593;-61
2024/01/09 01:20:21;;;;;;;8.73;5.70;;;-7.30;99.90;;;;;;5036815;28;20618;-62
2024/01/09 01:22:47;;;;;;;7.38;5.10;;;-7.30;99.90;;;;;;5036507;28;20198;-62
2024/01/09 01:25:14;;;;;;;7.88;5.80;;;-7.30;99.90;;;;;;5035553;28;20582;-61
2024/01/09 01:27:41;;;;;;;8.13;5.30;;;-7.30;99.90;;;;;;5035943;28;20198;-61
2024/01/09 01:30:08;;;;;;;8.20;6.50;;;-7.40;99.90;;;;;;5035436;28;20244;-62
2024/01/09 01:32:37;;;;;;;10.75;5.20;;;-7.40;99.90;;;;;;5035836;28;20656;-61
2024/01/09 01:35:04;;;;;;;11.15;6.18;;;-7.40;99.90;;;;;;5036228;28;20205;-62
2024/01/09 01:37:32;;;;;;;9.20;5.00;;;-7.40;99.90;;;;;;5035738;28;20634;-61
2024/01/09 01:39:58;;;;;;;9.38;5.20;;;-7.40;99.90;;;;;;5035187;28;20310;-61
2024/01/09 01:42:25;;;;;;;6.72;5.55;;;-7.40;99.90;;;;;;5036009;28;20289;-62
2024/01/09 01:44:52;;;;;;;10.95;5.35;;;-7.40;99.90;;;;;;5035838;28;20217;-60
2024/01/09 01:47:20;;;;;;;9.52;5.22;;;-7.40;99.90;;;;;;5036009;28;20206;-61
2024/01/09 01:49:48;;;;;;;9.75;6.03;;;-7.40;99.90;;;;;;5035735;28;20310;-61
2024/01/09 01:52:14;;;;;;;7.97;4.80;;;-7.40;99.90;;;;;;5035588;28;20202;-62
2024/01/09 01:54:42;;;;;;;6.72;4.55;;;-7.40;99.90;;;;;;5035790;28;20247;-61
2024/01/09 01:57:10;;;;;;;8.00;5.15;;;-7.50;99.90;;;;;;5036233;28;20213;-61
2024/01/09 01:59:41;;;;;;;9.63;4.55;;;-7.50;99.90;;;;;;5035435;28;20223;-62
2024/01/09 02:02:09;;;;;;;6.68;4.68;;;-7.50;99.90;;;;;;5035257;28;20269;-60
2024/01/09 02:04:36;;;;;;;7.10;4.32;;;-7.60;99.90;;;;;;5035610;28;20198;-61
2024/01/09 02:07:05;;;;;;;7.30;5.70;;;-7.60;99.90;;;;;;5035431;28;20209;-61
2024/01/09 02:09:32;;;;;;;8.63;4.80;;;-7.60;99.90;;;;;;5035680;28;20221;-61
2024/01/09 02:11:58;;;;;;;7.10;5.07;;;-7.60;99.90;;;;;;5035574;28;20233;-61
2024/01/09 02:14:25;;;;;;;9.80;5.20;;;-7.70;99.90;;;;;;5035674;28;20202;-61
2024/01/09 02:16:52;;;;;;;8.35;4.97;;;-7.70;99.90;;;;;;5035456;28;20202;-61
2024/01/09 02:19:19;;;;;;;8.38;5.35;;;-7.70;99.90;;;;;;5038385;28;20222;-61
2024/01/09 02:21:47;;;;;;;6.60;4.47;;;-7.80;99.90;;;;;;5038828;28;20233;-61
2024/01/09 02:24:15;;;;;;;9.13;4.35;;;-7.80;99.90;;;;;;5038879;28;20240;-62
2024/01/09 02:26:48;;;;;;;7.90;4.45;;;-7.80;99.90;;;;;;5035864;28;20198;-60
2024/01/09 02:29:17;;;;;;;9.38;5.68;;;-7.80;99.90;;;;;;5035130;28;20241;-61
2024/01/09 02:31:45;;;;;;;9.48;5.50;;;-7.90;99.90;;;;;;5035119;28;20730;-61
2024/01/09 02:34:14;;;;;;;9.32;5.68;;;-7.90;99.90;;;;;;5035316;28;20554;-61
2024/01/09 02:36:40;;;;;;;8.07;4.75;;;-7.90;99.90;;;;;;5035488;28;20209;-61
2024/01/09 02:39:07;;;;;;;7.57;4.88;;;-7.80;99.90;;;;;;5034866;28;20227;-61
2024/01/09 02:41:37;;;;;;;8.68;5.75;;;-7.80;99.90;;;;;;5035383;28;20222;-61
2024/01/09 02:44:04;;;;;;;7.32;4.70;;;-7.80;99.90;;;;;;5036070;28;20202;-60
2024/01/09 02:46:30;;;;;;;7.57;5.30;;;-7.80;99.90;;;;;;5034941;28;20213;-61
2024/01/09 02:48:59;;;;;;;7.68;4.65;;;-7.80;99.90;;;;;;5034699;28;20198;-61
2024/01/09 02:51:25;;;;;;;8.50;5.30;;;-7.90;99.90;;;;;;5033732;28;20226;-60
2024/01/09 02:53:52;;;;;;;6.95;4.50;;;-7.90;99.90;;;;;;5034827;28;20213;-61
2024/01/09 02:56:19;;;;;;;6.97;4.45;;;-7.90;99.90;;;;;;5034733;28;20230;-61
2024/01/09 02:58:46;;;;;;;10.30;5.40;;;-8.00;99.90;;;;;;5034529;28;20218;-60
2024/01/09 03:01:13;;;;;;;8.65;5.85;;;-8.00;99.90;;;;;;5034447;28;20218;-60
2024/01/09 03:03:39;;;;;;;8.07;6.00;;;-8.00;99.90;;;;;;5034252;28;20209;-60
2024/01/09 03:06:08;;;;;;;8.65;5.72;;;-8.00;99.90;;;;;;5034347;28;20198;-61
2024/01/09 03:08:34;;;;;;;6.57;5.45;;;-7.90;99.90;;;;;;5034324;28;20669;-61
2024/01/09 03:11:01;;;;;;;8.73;5.55;;;-7.90;99.90;;;;;;5034447;28;20230;-60
2024/01/09 03:13:28;;;;;;;7.82;4.72;;;-7.90;99.90;;;;;;5034487;28;20202;-61
2024/01/09 03:15:55;;;;;;;6.93;4.72;;;-7.90;99.90;;;;;;5035270;28;20559;-60
2024/01/09 03:18:21;;;;;;;8.23;5.47;;;-7.90;99.90;;;;;;5034719;28;20312;-60
2024/01/09 03:20:48;;;;;;;12.65;6.38;;;-7.90;99.90;;;;;;5034755;28;20248;-61
2024/01/09 03:23:16;;;;;;;7.75;5.15;;;-7.90;99.90;;;;;;5034236;28;20198;-60
2024/01/09 03:25:43;;;;;;;10.00;5.47;;;-7.90;99.90;;;;;;5034904;28;20206;-60
2024/01/09 03:28:10;;;;;;;8.80;5.13;;;-8.00;99.90;;;;;;5036383;28;20270;-60
2024/01/09 03:30:36;;;;;;;10.07;5.85;;;-8.00;99.90;;;;;;5035340;28;20230;-60
2024/01/09 03:33:03;;;;;;;9.20;4.30;;;-8.00;99.90;;;;;;5035290;28;20297;-60
2024/01/09 03:35:30;;;;;;;9.40;4.90;;;-8.00;99.90;;;;;;5035273;28;20202;-60
2024/01/09 03:37:57;;;;;;;10.27;6.55;;;-8.00;99.90;;;;;;5034909;28;20208;-61
2024/01/09 03:40:25;;;;;;;7.78;5.45;;;-8.00;99.90;;;;;;5034891;28;20218;-61
2024/01/09 03:42:52;;;;;;;9.65;5.60;;;-8.10;99.90;;;;;;5034920;28;20202;-61
2024/01/09 03:45:18;;;;;;;10.73;6.05;;;-8.10;99.90;;;;;;5034341;28;20209;-60
2024/01/09 03:47:45;;;;;;;7.00;4.82;;;-8.10;99.90;;;;;;5034089;28;20205;-60
2024/01/09 03:50:12;;;;;;;7.55;4.78;;;-8.10;99.90;;;;;;5033916;28;20230;-61
2024/01/09 03:52:39;;;;;;;7.85;4.97;;;-8.10;99.90;;;;;;5033639;28;20204;-60
2024/01/09 03:55:06;;;;;;;7.25;5.43;;;-8.10;99.90;;;;;;5034896;28;20237;-60
2024/01/09 03:57:34;;;;;;;7.90;5.93;;;-8.10;99.90;;;;;;5033785;28;20206;-59
2024/01/09 04:00:01;;;;;;;9.30;6.05;;;-8.20;99.90;;;;;;5034068;28;20230;-60
2024/01/09 04:02:28;;;;;;;8.10;5.55;;;-8.20;99.90;;;;;;5033557;28;20209;-60
2024/01/09 04:04:55;;;;;;;8.60;5.32;;;-8.20;99.90;;;;;;5033761;28;20203;-60
2024/01/09 04:07:22;;;;;;;10.40;5.70;;;-8.20;99.90;;;;;;5033572;28;20568;-59
2024/01/09 04:12:56;;;;;;;8.20;4.93;;;-8.20;99.90;;;;;;5091620;28;20594;-61
2024/01/09 04:15:23;;;;;;;6.22;5.13;;;-8.20;99.90;;;;;;5091049;28;20200;-60
2024/01/09 04:17:49;;;;;;;8.98;4.47;;;-8.20;99.90;;;;;;5091080;28;20200;-61
2024/01/09 04:20:16;;;;;;;7.20;5.18;;;-8.30;99.90;;;;;;5092948;28;20219;-60
2024/01/09 04:22:43;;;;;;;7.72;4.50;;;-8.30;99.90;;;;;;5092342;28;20203;-60
2024/01/09 04:25:11;;;;;;;10.88;4.88;;;-8.30;99.90;;;;;;5091386;28;20291;-60
2024/01/09 04:27:38;;;;;;;8.07;4.63;;;-8.30;99.90;;;;;;5090121;28;20196;-60
2024/01/09 04:30:08;;;;;;;9.30;5.93;;;-8.30;99.90;;;;;;5090467;28;20220;-60
2024/01/09 04:32:34;;;;;;;6.78;4.82;;;-8.30;99.90;;;;;;5090412;28;20227;-61
2024/01/09 04:35:01;;;;;;;10.10;5.22;;;-8.30;99.90;;;;;;5090774;28;20205;-60
2024/01/09 04:37:28;;;;;;;8.70;5.38;;;-8.30;99.90;;;;;;5090397;28;20222;-60
2024/01/09 04:39:55;;;;;;;6.28;4.50;;;-8.30;99.90;;;;;;5090790;28;20223;-60
2024/01/09 04:42:21;;;;;;;6.03;4.68;;;-8.30;99.90;;;;;;5091091;28;20193;-60
2024/01/09 04:44:48;;;;;;;7.75;6.55;;;-8.30;99.90;;;;;;5090669;28;20306;-60
2024/01/09 04:47:16;;;;;;;7.55;5.15;;;-8.40;99.90;;;;;;5091027;28;20202;-59
2024/01/09 04:49:43;;;;;;;8.20;5.53;;;-8.40;99.90;;;;;;5090769;28;20204;-60
2024/01/09 04:52:10;;;;;;;8.05;5.45;;;-8.40;99.90;;;;;;5092412;28;20322;-60
2024/01/09 04:54:37;;;;;;;11.15;6.30;;;-8.40;99.90;;;;;;5090306;28;20686;-60
2024/01/09 04:57:04;;;;;;;8.85;5.43;;;-8.40;99.90;;;;;;5090658;28;20564;-60
2024/01/09 04:59:31;;;;;;;7.35;4.75;;;-8.40;99.90;;;;;;5090909;28;20207;-60
2024/01/09 05:02:01;;;;;;;10.68;5.35;;;-8.40;99.90;;;;;;5085953;22;20240;-60
2024/01/09 05:04:29;;;;;;;9.20;5.43;;;-8.40;99.90;;;;;;5049473;28;20666;-60
2024/01/09 05:06:56;;;;;;;6.72;5.10;;;-8.40;99.90;;;;;;5051214;28;20688;-60
2024/01/09 05:09:23;;;;;;;11.90;7.07;;;-8.40;99.90;;;;;;5049581;28;20583;-60
2024/01/09 05:11:50;;;;;;;8.73;5.18;;;-8.40;99.90;;;;;;5053722;28;20230;-60
2024/01/09 05:14:17;;;;;;;11.75;6.03;;;-8.40;99.90;;;;;;5054201;28;20206;-60
2024/01/09 05:16:43;;;;;;;5.03;4.50;;;-8.40;99.90;;;;;;5049948;28;20205;-61
2024/01/09 05:19:10;;;;;;;5.53;4.50;;;-8.40;99.90;;;;;;5049961;28;20210;-60
2024/01/09 05:21:38;;;;;;;12.32;6.38;;;-8.40;99.90;;;;;;5049142;28;20218;-60
2024/01/09 05:24:06;;;;;;;9.57;5.45;;;-8.40;99.90;;;;;;5036634;28;20202;-61
2024/01/09 05:26:32;;;;;;;9.80;6.65;;;-8.40;99.90;;;;;;5035300;28;20672;-60
2024/01/09 05:28:59;;;;;;;6.78;5.88;;;-8.40;99.90;;;;;;5035501;28;20207;-60
2024/01/09 05:31:26;;;;;;;7.97;4.80;;;-8.40;99.90;;;;;;5035062;28;20708;-60
2024/01/09 05:33:53;;;;;;;7.80;5.30;;;-8.40;99.90;;;;;;5035275;28;20707;-60
2024/01/09 05:36:22;;;;;;;6.38;4.97;;;-8.40;99.90;;;;;;5035495;28;20202;-60
2024/01/09 05:38:51;;;;;;;6.32;4.35;;;-8.40;99.90;;;;;;5035023;28;20206;-60
2024/01/09 05:41:21;;;;;;;12.75;6.60;;;-8.40;99.90;;;;;;5035388;28;20615;-60
2024/01/09 05:43:48;;;;;;;9.45;5.70;;;-8.40;99.90;;;;;;5035533;28;20233;-60
2024/01/09 05:46:15;;;;;;;9.85;5.40;;;-8.40;99.90;;;;;;5035257;28;20206;-59
2024/01/09 05:48:42;;;;;;;10.85;5.80;;;-8.40;99.90;;;;;;5034979;28;20636;-61
2024/01/09 05:51:09;;;;;;;8.45;5.18;;;-8.40;99.90;;;;;;5034719;28;20253;-61
2024/01/09 05:53:36;;;;;;;9.27;6.30;;;-8.40;99.90;;;;;;5035070;28;20202;-61
2024/01/09 05:56:06;;;;;;;9.43;5.93;;;-8.40;99.90;;;;;;5035083;28;20252;-61
2024/01/09 05:58:33;;;;;;;8.38;5.57;;;-8.40;99.90;;;;;;5034633;28;20206;-60
2024/01/09 06:01:00;;;;;;;9.07;4.82;;;-8.40;99.90;;;;;;5034414;28;20280;-59
2024/01/09 06:03:26;;;;;;;7.78;5.20;;;-8.40;99.90;;;;;;5034816;28;20186;-61
2024/01/09 06:05:53;;;;;;;8.10;4.90;;;-8.40;99.90;;;;;;5034512;28;20209;-60
2024/01/09 06:08:20;;;;;;;6.60;4.90;;;-8.50;99.90;;;;;;5034932;28;20203;-61
2024/01/09 06:10:47;;;;;;;8.15;5.93;;;-8.50;99.90;;;;;;5034537;28;20203;-61
2024/01/09 06:13:15;;;;;;;7.45;5.57;;;-8.50;99.90;;;;;;5034486;28;20704;-59
2024/01/09 06:15:42;;;;;;;9.20;5.95;;;-8.50;99.90;;;;;;5035550;28;20202;-60
2024/01/09 06:18:09;;;;;;;7.68;5.05;;;-8.50;99.90;;;;;;5034480;28;20233;-61
2024/01/09 06:20:36;;;;;;;8.02;5.53;;;-8.50;99.90;;;;;;5034243;28;20691;-59
2024/01/09 06:23:02;;;;;;;6.40;5.07;;;-8.50;99.90;;;;;;5034601;28;20218;-61
2024/01/09 06:25:29;;;;;;;9.55;5.70;;;-8.50;99.90;;;;;;5034282;28;20675;-61
2024/01/09 06:27:56;;;;;;;11.13;6.50;;;-8.50;99.90;;;;;;5034066;28;20210;-61
2024/01/09 06:30:24;;;;;;;8.70;6.40;;;-8.50;99.90;;;;;;5034224;28;20202;-61
2024/01/09 06:32:51;;;;;;;11.90;5.45;;;-8.50;99.90;;;;;;5033951;28;20222;-60
2024/01/09 06:35:18;;;;;;;7.85;5.25;;;-8.50;99.90;;;;;;5033242;28;20198;-59
2024/01/09 06:37:44;;;;;;;7.38;6.63;;;-8.50;99.90;;;;;;5034441;28;20206;-59
2024/01/09 06:40:12;;;;;;;7.05;6.05;;;-8.50;99.90;;;;;;5034684;28;20202;-59
2024/01/09 06:42:40;;;;;;;6.65;4.90;;;-8.50;99.90;;;;;;5034279;28;20222;-61
2024/01/09 06:45:07;;;;;;;6.93;4.30;;;-8.50;99.90;;;;;;5034711;28;20224;-60
2024/01/09 06:47:35;;;;;;;9.35;6.38;;;-8.50;99.90;;;;;;5033978;28;20202;-60
2024/01/09 06:50:03;;;;;;;7.32;5.82;;;-8.50;99.90;;;;;;5033984;28;20202;-61
2024/01/09 06:52:31;;;;;;;10.02;7.00;;;-8.40;99.90;;;;;;5033743;28;20241;-59
2024/01/09 06:54:58;;;;;;;9.00;5.75;;;-8.40;99.90;;;;;;5033596;28;20211;-61
2024/01/09 06:57:25;;;;;;;10.02;5.68;;;-8.50;99.90;;;;;;5035048;28;20206;-61
2024/01/09 06:59:52;;;;;;;11.77;6.00;;;-8.50;99.90;;;;;;5034942;28;20298;-60
2024/01/09 07:02:20;;;;;;;14.98;7.50;;;-8.40;99.90;;;;;;5033448;28;20726;-60
2024/01/09 07:04:48;;;;;;;8.52;6.75;;;-8.40;99.90;;;;;;5034508;28;20202;-60
2024/01/09 07:07:15;;;;;;;11.90;7.80;;;-8.40;99.90;;;;;;5034191;28;20199;-59
2024/01/09 07:09:42;;;;;;;12.20;5.85;;;-8.40;99.90;;;;;;5033580;28;20198;-60
2024/01/09 07:12:09;;;;;;;10.23;6.20;;;-8.40;99.90;;;;;;5033740;28;20225;-61
2024/01/09 07:14:36;;;;;;;8.27;5.55;;;-8.40;99.90;;;;;;5034034;28;20245;-61
2024/01/09 07:17:04;;;;;;;10.63;6.00;;;-8.40;99.90;;;;;;5034807;28;20248;-59
2024/01/09 07:19:31;;;;;;;8.13;6.18;;;-8.40;99.90;;;;;;5034841;28;20213;-61
2024/01/09 07:21:59;;;;;;;9.18;5.20;;;-8.40;99.90;;;;;;5034567;28;20215;-59
2024/01/09 07:24:26;;;;;;;11.32;5.60;;;-8.40;99.90;;;;;;5035630;28;20203;-60
2024/01/09 07:26:52;;;;;;;11.82;5.90;;;-8.40;99.90;;;;;;5037950;28;20198;-60
2024/01/09 07:29:19;;;;;;;6.65;5.10;;;-8.50;99.90;;;;;;5036840;28;20273;-60
2024/01/09 07:31:47;;;;;;;7.55;5.32;;;-8.50;99.90;;;;;;5036518;28;20313;-60
2024/01/09 07:34:14;;;;;;;8.27;6.07;;;-8.50;99.90;;;;;;5036486;28;20217;-60
2024/01/09 07:36:42;;;;;;;8.93;5.35;;;-8.50;99.90;;;;;;5036554;28;20206;-60
2024/01/09 07:39:12;;;;;;;9.85;5.43;;;-8.50;99.90;;;;;;5035124;28;20198;-60
2024/01/09 07:41:39;;;;;;;8.63;5.10;;;-8.50;99.90;;;;;;5035063;28;20226;-59
2024/01/09 07:44:06;;;;;;;8.20;6.82;;;-8.50;99.90;;;;;;5037012;28;20210;-60
2024/01/09 07:46:33;;;;;;;10.75;5.40;;;-8.50;99.90;;;;;;5035864;28;20206;-60
2024/01/09 07:49:00;;;;;;;10.07;6.43;;;-8.50;99.90;;;;;;5035373;28;20202;-61
2024/01/09 07:51:27;;;;;;;10.60;5.65;;;-8.50;99.90;;;;;;5034682;28;20222;-59
2024/01/09 07:53:54;;;;;;;11.77;6.68;;;-8.50;99.90;;;;;;5034600;28;20222;-60
2024/01/09 07:56:22;;;;;;;9.80;6.40;;;-8.50;99.90;;;;;;5034809;28;20210;-62
2024/01/09 07:58:49;;;;;;;8.48;5.90;;;-8.50;99.90;;;;;;5034170;28;20215;-61
2024/01/09 08:01:17;;;;;;;11.43;6.10;;;-8.40;99.90;;;;;;5034615;28;20246;-61
2024/01/09 08:03:44;;;;;;;7.18;5.78;;;-8.40;99.90;;;;;;5034612;28;20209;-60
2024/01/09 08:06:14;;;;;;;10.32;5.47;;;-8.40;99.90;;;;;;5033253;28;20592;-62
2024/01/09 08:08:41;;;;;;;6.95;5.25;;;-8.40;99.90;;;;;;5032800;28;20663;-61
2024/01/09 08:11:08;;;;;;;10.75;5.40;;;-8.30;99.90;;;;;;5033354;28;20222;-61
2024/01/09 08:13:37;;;;;;;11.43;6.55;;;-8.30;99.90;;;;;;5032461;28;20221;-61
2024/01/09 08:16:05;;;;;;;11.52;7.38;;;-8.30;99.90;;;;;;5032817;28;20256;-61
2024/01/09 08:18:33;;;;;;;7.82;5.40;;;-8.30;99.90;;;;;;5033079;28;20575;-61
2024/01/09 08:20:59;;;;;;;6.18;5.00;;;-8.30;99.90;;;;;;5032672;28;20550;-61
2024/01/09 08:23:26;;;;;;;10.98;5.70;;;-8.20;99.90;;;;;;5033000;28;20195;-61
2024/01/09 08:25:53;;;;;;;9.23;5.30;;;-8.10;99.90;;;;;;5033187;28;20206;-61
2024/01/09 08:28:20;;;;;;;8.80;5.85;;;-8.10;99.90;;;;;;5033548;28;20212;-64
2024/01/09 08:30:48;;;;;;;10.25;6.40;;;-8.10;99.90;;;;;;5032965;28;20198;-63
2024/01/09 08:33:15;;;;;;;11.63;5.60;;;-8.00;99.90;;;;;;5032510;28;20222;-62
2024/01/09 08:35:43;;;;;;;14.07;6.53;;;-8.00;99.90;;;;;;5032755;28;20548;-61
2024/01/09 08:38:11;;;;;;;9.68;6.07;;;-8.00;99.90;;;;;;5032456;28;20274;-61
2024/01/09 08:40:37;;;;;;;8.80;5.80;;;-7.90;99.90;;;;;;5032670;28;20728;-62
2024/01/09 08:43:04;;;;;;;10.43;6.25;;;-7.80;99.90;;;;;;5032749;28;20198;-61
2024/01/09 08:45:31;;;;;;;8.48;6.00;;;-7.70;99.90;;;;;;5033320;28;20212;-61
2024/01/09 08:47:59;;;;;;;8.20;5.50;;;-7.70;99.90;;;;;;5033305;28;20203;-62
2024/01/09 08:50:26;;;;;;;11.20;6.65;;;-7.60;99.90;;;;;;5033134;28;20195;-60
2024/01/09 08:52:54;;;;;;;9.75;6.03;;;-7.60;99.90;;;;;;5032934;28;20229;-61
2024/01/09 08:55:21;;;;;;;12.20;7.80;;;-7.50;99.90;;;;;;5035638;28;20213;-60
2024/01/09 08:57:49;;;;;;;14.68;7.45;;;-7.50;99.90;;;;;;5034429;28;20293;-61
2024/01/09 09:00:16;;;;;;;12.57;6.82;;;-7.40;99.90;;;;;;5037205;28;20206;-63
2024/01/09 09:02:43;;;;;;;11.68;6.40;;;-7.40;99.90;;;;;;5036120;28;20236;-61
2024/01/09 09:05:12;;;;;;;12.68;6.68;;;-7.30;99.90;;;;;;5036710;28;20208;-62
2024/01/09 09:07:38;;;;;;;14.38;7.60;;;-7.30;99.90;;;;;;5036345;28;20260;-61
2024/01/09 09:10:06;;;;;;;10.48;7.05;;;-7.20;99.90;;;;;;5036322;28;20209;-63
2024/01/09 09:12:33;;;;;;;14.52;7.28;;;-7.20;99.90;;;;;;5036386;28;20226;-61
2024/01/09 09:15:01;;;;;;;7.72;5.47;;;-7.20;99.90;;;;;;5036703;28;20198;-62
2024/01/09 09:17:27;;;;;;;10.18;6.10;;;-7.20;99.90;;;;;;5036463;28;20209;-62
2024/01/09 09:19:54;;;;;;;7.75;5.70;;;-7.10;99.90;;;;;;5036628;28;20208;-62
2024/01/09 09:22:23;;;;;;;12.18;6.93;;;-7.10;99.90;;;;;;5036986;28;20235;-62
2024/01/09 09:24:50;;;;;;;8.55;5.85;;;-7.10;99.90;;;;;;5036665;28;20202;-63
2024/01/09 09:27:17;;;;;;;14.15;7.40;;;-7.10;99.90;;;;;;5037224;28;20202;-61
2024/01/09 09:29:44;;;;;;;7.13;6.05;;;-7.00;99.90;;;;;;5040580;28;20210;-62
2024/01/09 09:32:10;;;;;;;10.65;6.63;;;-7.00;99.90;;;;;;5040627;28;20222;-62
2024/01/09 09:34:40;;;;;;;11.13;7.20;;;-7.00;99.90;;;;;;5039344;28;20202;-61
2024/01/09 09:37:06;;;;;;;9.52;6.63;;;-6.90;99.90;;;;;;5038358;28;20202;-63
2024/01/09 09:39:35;;;;;;;12.93;6.78;;;-6.90;99.90;;;;;;5036014;28;20209;-60
2024/01/09 09:42:02;;;;;;;11.02;7.05;;;-6.80;99.90;;;;;;5035975;28;20225;-61
2024/01/09 09:44:29;;;;;;;11.02;6.20;;;-6.80;99.90;;;;;;5035672;28;20198;-63
2024/01/09 09:46:56;;;;;;;10.85;7.05;;;-6.70;99.90;;;;;;5035830;28;20208;-62
2024/01/09 09:49:23;;;;;;;11.63;6.88;;;-6.70;99.90;;;;;;5035947;28;20609;-61
2024/01/09 09:51:51;;;;;;;9.07;6.15;;;-6.60;99.90;;;;;;5035964;28;20239;-61
2024/01/09 09:54:19;;;;;;;9.13;6.55;;;-6.50;99.90;;;;;;5035436;28;20218;-61
2024/01/09 09:56:48;;;;;;;11.10;6.90;;;-6.50;99.90;;;;;;5035157;28;20577;-62
2024/01/09 09:59:16;;;;;;;9.73;6.30;;;-6.40;99.90;;;;;;5035456;28;20210;-62
2024/01/09 10:01:44;;;;;;;9.30;6.40;;;-6.30;99.90;;;;;;5035026;28;20234;-62
2024/01/09 10:04:24;;;;;;;13.20;6.93;;;-6.30;99.90;;;;;;5035275;28;20198;-61
2024/01/09 10:06:55;;;;;;;11.48;7.13;;;-6.30;99.90;;;;;;5035325;28;20186;-62
2024/01/09 10:09:24;;;;;;;13.23;8.30;;;-6.20;99.90;;;;;;5036112;28;20213;-62
2024/01/09 10:11:52;;;;;;;11.73;7.90;;;-6.20;99.90;;;;;;5035748;28;20224;-62
2024/01/09 10:14:19;;;;;;;9.45;7.13;;;-6.20;99.90;;;;;;5036795;28;20569;-61
2024/01/09 10:16:50;;;;;;;13.75;7.75;;;-6.10;99.90;;;;;;5037010;28;20224;-62
2024/01/09 10:19:17;;;;;;;8.60;7.10;;;-6.10;99.90;;;;;;5036751;28;20209;-61
2024/01/09 10:21:44;;;;;;;9.30;7.30;;;-6.10;99.90;;;;;;5036440;28;20230;-60
2024/01/09 10:24:11;;;;;;;8.05;6.80;;;-6.10;99.90;;;;;;5036452;28;20201;-62
2024/01/09 10:26:38;;;;;;;11.95;6.70;;;-6.00;99.90;;;;;;5036954;28;20673;-62
2024/01/09 10:29:06;;;;;;;11.50;6.82;;;-6.00;99.90;;;;;;5035093;28;20210;-60
2024/01/09 10:31:32;;;;;;;9.35;6.00;;;-6.00;99.90;;;;;;5035137;28;20222;-61
2024/01/09 10:33:59;;;;;;;16.45;7.57;;;-5.90;99.90;;;;;;5034994;28;20313;-62
2024/01/09 10:36:27;;;;;;;10.88;6.50;;;-5.80;99.90;;;;;;5035659;28;20198;-62
2024/01/09 10:39:03;;;;;;;10.23;6.63;;;-5.80;99.90;;;;;;5035045;28;20213;-62
2024/01/09 10:41:32;;;;;;;14.77;7.85;;;-5.70;99.90;;;;;;5034839;28;20257;-62
2024/01/09 10:44:00;;;;;;;11.93;7.55;;;-5.70;99.90;;;;;;5034827;28;20216;-62
2024/01/09 10:46:31;;;;;;;10.38;7.50;;;-5.70;99.90;;;;;;5034560;28;20206;-62
2024/01/09 10:48:58;;;;;;;12.35;7.45;;;-5.70;99.90;;;;;;5034271;28;20643;-62
2024/01/09 10:51:25;;;;;;;13.23;8.30;;;-5.70;99.90;;;;;;5035242;28;20249;-61
2024/01/09 10:53:53;;;;;;;13.10;7.13;;;-5.70;99.90;;;;;;5034596;28;20594;-60
2024/01/09 10:56:21;;;;;;;13.60;7.85;;;-5.70;99.90;;;;;;5034708;28;20214;-61
2024/01/09 10:58:49;;;;;;;8.98;6.93;;;-5.70;99.90;;;;;;5034070;28;20689;-61
2024/01/09 11:01:17;;;;;;;13.32;8.02;;;-5.60;99.90;;;;;;5034620;28;20284;-61
2024/01/09 11:03:45;;;;;;;10.55;7.40;;;-5.50;99.90;;;;;;5034952;28;20593;-62
2024/01/09 11:06:15;;;;;;;8.75;6.55;;;-5.50;99.90;;;;;;5034498;28;20202;-62
2024/01/09 11:08:43;;;;;;;13.55;6.85;;;-5.50;99.90;;;;;;5035707;28;20209;-63
2024/01/09 11:11:13;;;;;;;12.57;6.63;;;-5.50;99.90;;;;;;5036399;28;20226;-61
2024/01/09 11:13:46;;;;;;;14.90;8.00;;;-5.40;99.90;;;;;;5033934;28;20717;-62
2024/01/09 11:16:14;;;;;;;13.77;7.43;;;-5.40;99.90;;;;;;5033760;28;20201;-62
2024/01/09 11:18:41;;;;;;;9.15;6.80;;;-5.30;99.90;;;;;;5033710;28;20209;-62
2024/01/09 11:21:11;;;;;;;11.68;7.82;;;-5.30;99.90;;;;;;5033373;28;20222;-62
2024/01/09 11:23:54;;;;;;;9.27;5.88;;;-5.30;99.90;;;;;;5033392;28;20253;-62
2024/01/09 11:26:21;;;;;;;13.60;6.88;;;-5.30;99.90;;;;;;5033973;28;20273;-61
2024/01/09 11:28:48;;;;;;;16.50;6.40;;;-5.20;99.90;;;;;;5034056;28;20203;-61
2024/01/09 11:31:20;;;;;;;10.23;7.05;;;-5.20;99.90;;;;;;5033633;28;20219;-62
2024/01/09 11:33:48;;;;;;;8.10;6.75;;;-5.20;99.90;;;;;;5034794;28;20229;-61
2024/01/09 11:36:23;;;;;;;14.82;9.43;;;-5.20;99.90;;;;;;5034943;28;20206;-62
2024/01/09 11:38:52;;;;;;;11.55;7.68;;;-5.20;99.90;;;;;;5033736;28;20190;-61
2024/01/09 11:41:19;;;;;;;8.65;6.28;;;-5.20;99.90;;;;;;5033694;28;20226;-62
2024/01/09 11:44:00;;;;;;;13.18;6.20;;;-5.10;99.90;;;;;;5033383;28;20202;-63
2024/01/09 11:46:27;;;;;;;10.75;6.88;;;-5.00;99.90;;;;;;5033293;28;20701;-62
2024/01/09 11:48:54;;;;;;;9.18;5.57;;;-5.00;99.90;;;;;;5033059;28;20237;-61
2024/01/09 11:51:25;;;;;;;15.15;7.45;;;-5.00;99.90;;;;;;5032674;28;20685;-61
2024/01/09 11:53:52;;;;;;;11.15;6.60;;;-5.00;99.90;;;;;;5033051;28;20219;-62
2024/01/09 11:56:19;;;;;;;11.40;6.22;;;-4.90;99.90;;;;;;5033412;28;20208;-61
2024/01/09 11:58:49;;;;;;;11.27;6.32;;;-4.90;99.60;;;;;;5033829;28;20638;-61
2024/01/09 12:01:18;;;;;;;10.43;5.75;;;-4.90;99.00;;;;;;5032752;28;20712;-62
2024/01/09 12:03:50;;;;;;;9.68;6.00;;;-4.90;98.70;;;;;;5033516;28;20189;-61
2024/01/09 12:06:17;;;;;;;10.68;6.28;;;-4.90;98.50;;;;;;5033426;28;20187;-62
2024/01/09 12:08:46;;;;;;;11.90;5.60;;;-4.90;98.50;;;;;;5033265;28;20214;-62
2024/01/09 12:11:12;;;;;;;11.85;6.55;;;-4.90;98.20;;;;;;5034627;28;20731;-61
2024/01/09 12:13:39;;;;;;;8.00;6.07;;;-4.80;97.70;;;;;;5034492;28;20312;-61
2024/01/09 12:16:16;;;;;;;7.50;5.95;;;-4.80;97.50;;;;;;5033892;28;20316;-61
2024/01/09 12:18:50;;;;;;;11.10;6.45;;;-4.80;97.40;;;;;;5034313;28;20565;-62
2024/01/09 12:21:18;;;;;;;10.55;6.60;;;-4.70;97.30;;;;;;5033292;28;20221;-62
2024/01/09 12:23:47;;;;;;;9.00;5.15;;;-4.60;97.20;;;;;;5033302;28;20290;-61
2024/01/09 12:26:15;;;;;;;10.90;6.18;;;-4.50;96.40;;;;;;5033202;28;20295;-62
2024/01/09 12:28:43;;;;;;;8.10;6.65;;;-4.50;96.00;;;;;;5033888;28;20598;-63
2024/01/09 12:31:10;;;;;;;6.78;5.10;;;-4.50;95.70;;;;;;5034456;28;20222;-62
2024/01/09 12:33:37;;;;;;;9.00;5.88;;;-4.40;95.50;;;;;;5038191;28;20222;-64
2024/01/09 12:36:05;;;;;;;13.00;5.45;;;-4.40;95.20;;;;;;5038815;28;20198;-64
2024/01/09 12:38:32;;;;;;;10.70;5.70;;;-4.40;95.20;;;;;;5038699;28;20554;-64
2024/01/09 12:41:01;;;;;;;10.40;5.05;;;-4.40;95.10;;;;;;5041621;28;20291;-62
2024/01/09 12:43:28;;;;;;;9.95;6.00;;;-4.30;94.70;;;;;;5041897;28;20209;-61
2024/01/09 12:45:56;;;;;;;7.38;5.43;;;-4.30;94.40;;;;;;5041407;28;20209;-62
2024/01/09 12:48:22;;;;;;;7.10;5.53;;;-4.30;94.10;;;;;;5042320;28;20701;-61